Time;durP1;ratioP1;P1;durP2;ratioP2;P2;SDS_P1;SDS_P2;PMS_P1;PMS_P2;Temp;Humidity;BMP_temperature;BMP_pressure;BME280_temperature;BME280_humidity;BME280_pressure;Samples;Min_cycle;Max_cycle;Signal;HPM_P1;HPM_P2
2024/01/22 00:00:15;;;;;;;19.20;9.85;;;;;;;;;;4936570;29;20118;-67
2024/01/22 00:02:41;;;;;;;16.13;9.68;;;;;;;;;;4935874;29;20059;-68
2024/01/22 00:05:08;;;;;;;13.85;8.80;;;;;;;;;;4936445;29;20381;-70
2024/01/22 00:07:35;;;;;;;17.98;9.77;;;;;;;;;;4936919;29;20078;-68
2024/01/22 00:10:01;;;;;;;15.65;9.73;;;;;;;;;;4936798;29;20435;-68
2024/01/22 00:12:26;;;;;;;14.55;9.13;;;;;;;;;;4936242;29;20035;-67
2024/01/22 00:14:52;;;;;;;16.90;9.63;;;;;;;;;;4936398;29;20031;-69
2024/01/22 00:17:17;;;;;;;15.73;9.85;;;;;;;;;;4936187;29;20038;-68
2024/01/22 00:19:43;;;;;;;14.15;9.52;;;;;;;;;;4936107;29;20031;-71
2024/01/22 00:22:08;;;;;;;15.80;9.40;;;;;;;;;;4936604;29;20070;-70
2024/01/22 00:24:34;;;;;;;13.32;9.10;;;;;;;;;;4936098;29;20027;-68
2024/01/22 00:26:59;;;;;;;15.45;9.45;;;;;;;;;;4936304;29;20035;-68
2024/01/22 00:29:25;;;;;;;14.52;9.40;;;;;;;;;;4936651;29;20054;-69
2024/01/22 00:31:50;;;;;;;16.25;10.30;;;;;;;;;;4936349;29;20400;-68
2024/01/22 00:34:16;;;;;;;14.50;9.25;;;;;;;;;;4919277;29;20381;-68
2024/01/22 00:36:41;;;;;;;15.32;9.57;;;;;;;;;;4936214;29;20381;-68
2024/01/22 00:39:07;;;;;;;14.60;9.80;;;;;;;;;;4936438;29;20095;-69
2024/01/22 00:41:32;;;;;;;13.07;9.10;;;;;;;;;;4936420;29;20469;-69
2024/01/22 00:43:58;;;;;;;15.10;9.32;;;;;;;;;;4936342;29;20382;-69
2024/01/22 00:46:23;;;;;;;12.77;9.32;;;;;;;;;;4936067;29;20111;-69
2024/01/22 00:48:49;;;;;;;14.93;10.55;;;;;;;;;;4936064;29;20079;-69
2024/01/22 00:51:15;;;;;;;13.82;9.25;;;;;;;;;;4919043;29;20038;-69
2024/01/22 00:53:40;;;;;;;12.70;9.13;;;;;;;;;;4936202;29;20078;-68
2024/01/22 00:56:06;;;;;;;15.13;9.52;;;;;;;;;;4936120;29;20381;-68
2024/01/22 00:58:31;;;;;;;15.82;10.02;;;;;;;;;;4935846;29;20384;-69
2024/01/22 01:00:57;;;;;;;14.00;9.27;;;;;;;;;;4935795;29;20039;-69
2024/01/22 01:03:22;;;;;;;12.13;8.63;;;;;;;;;;4935642;29;20040;-67
2024/01/22 01:05:48;;;;;;;15.77;9.73;;;;;;;;;;4936030;29;20131;-67
2024/01/22 01:08:14;;;;;;;14.60;8.90;;;;;;;;;;4936000;29;20486;-67
2024/01/22 01:10:39;;;;;;;13.10;9.50;;;;;;;;;;4935595;29;20492;-67
2024/01/22 01:13:05;;;;;;;14.23;9.23;;;;;;;;;;4935644;29;20067;-68
2024/01/22 01:15:30;;;;;;;14.38;9.20;;;;;;;;;;4935854;29;20508;-68
2024/01/22 01:17:56;;;;;;;13.15;9.23;;;;;;;;;;4918532;29;20024;-68
2024/01/22 01:20:21;;;;;;;14.07;9.13;;;;;;;;;;4935724;29;20046;-68
2024/01/22 01:22:47;;;;;;;15.10;9.18;;;;;;;;;;4935777;29;20028;-69
2024/01/22 01:25:13;;;;;;;14.75;9.30;;;;;;;;;;4935324;29;20028;-68
2024/01/22 01:27:38;;;;;;;13.63;8.98;;;;;;;;;;4935403;29;20040;-68
2024/01/22 01:30:04;;;;;;;13.27;9.02;;;;;;;;;;4935388;29;20024;-68
2024/01/22 01:32:30;;;;;;;12.40;8.80;;;;;;;;;;4935272;29;20507;-67
2024/01/22 01:34:55;;;;;;;12.23;9.02;;;;;;;;;;4935615;29;20035;-67
2024/01/22 01:37:21;;;;;;;13.43;8.77;;;;;;;;;;4918274;29;20094;-67
2024/01/22 01:39:46;;;;;;;10.00;7.82;;;;;;;;;;4935228;29;20028;-69
2024/01/22 01:42:12;;;;;;;13.63;9.20;;;;;;;;;;4918258;29;20538;-69
2024/01/22 01:44:37;;;;;;;12.38;8.50;;;;;;;;;;4935451;29;20075;-68
2024/01/22 01:47:04;;;;;;;15.43;8.68;;;;;;;;;;4918099;29;20023;-68
2024/01/22 01:49:30;;;;;;;12.32;9.18;;;;;;;;;;4928551;29;20098;-67
2024/01/22 01:51:56;;;;;;;14.15;8.73;;;;;;;;;;4925309;29;20371;-67
2024/01/22 01:54:23;;;;;;;12.27;8.70;;;;;;;;;;4923753;29;20028;-67
2024/01/22 01:56:49;;;;;;;12.32;8.30;;;;;;;;;;4923337;29;20020;-66
2024/01/22 01:59:16;;;;;;;10.93;8.50;;;;;;;;;;4927839;29;20028;-67
2024/01/22 02:01:41;;;;;;;12.55;8.63;;;;;;;;;;4923552;29;20028;-67
2024/01/22 02:04:07;;;;;;;13.77;8.75;;;;;;;;;;4924087;29;20057;-68
2024/01/22 02:06:33;;;;;;;13.40;8.95;;;;;;;;;;4925006;29;20035;-68
2024/01/22 02:08:58;;;;;;;12.07;8.75;;;;;;;;;;4923299;29;20021;-68
2024/01/22 02:11:24;;;;;;;12.25;8.15;;;;;;;;;;4924549;29;20035;-68
2024/01/22 02:13:50;;;;;;;11.63;7.97;;;;;;;;;;4924726;29;20036;-68
2024/01/22 02:16:15;;;;;;;11.45;8.40;;;;;;;;;;4917775;29;20107;-68
2024/01/22 02:18:41;;;;;;;13.07;8.23;;;;;;;;;;4899014;29;20115;-64
2024/01/22 02:21:08;;;;;;;12.85;8.35;;;;;;;;;;4915094;29;20088;-65
2024/01/22 02:23:33;;;;;;;17.10;9.15;;;;;;;;;;4914221;29;20029;-67
2024/01/22 02:25:59;;;;;;;13.63;8.20;;;;;;;;;;4914180;29;20039;-67
2024/01/22 02:28:24;;;;;;;18.13;9.50;;;;;;;;;;4914248;29;20112;-67
2024/01/22 02:30:50;;;;;;;12.35;8.23;;;;;;;;;;4914255;29;20036;-72
2024/01/22 02:33:15;;;;;;;13.20;8.63;;;;;;;;;;4897113;29;20558;-67
2024/01/22 02:35:41;;;;;;;15.60;9.45;;;;;;;;;;4914486;29;20355;-67
2024/01/22 02:38:06;;;;;;;14.18;7.60;;;;;;;;;;4919450;29;20111;-68
2024/01/22 02:40:32;;;;;;;11.85;8.30;;;;;;;;;;4919322;29;20047;-68
2024/01/22 02:42:57;;;;;;;14.73;8.98;;;;;;;;;;4919340;29;20095;-67
2024/01/22 02:45:23;;;;;;;14.07;8.30;;;;;;;;;;4919691;29;20024;-70
2024/01/22 02:47:48;;;;;;;10.95;8.05;;;;;;;;;;4919313;29;20437;-68
2024/01/22 02:50:14;;;;;;;11.82;8.20;;;;;;;;;;4919241;29;20511;-70
2024/01/22 02:52:39;;;;;;;10.73;7.68;;;;;;;;;;4919176;29;20075;-69
2024/01/22 02:55:05;;;;;;;12.07;8.45;;;;;;;;;;4919376;29;20028;-68
2024/01/22 02:57:30;;;;;;;12.70;7.35;;;;;;;;;;4932815;29;20035;-68
2024/01/22 02:59:56;;;;;;;15.38;8.43;;;;;;;;;;4940227;29;20389;-67
2024/01/22 03:02:22;;;;;;;11.70;7.75;;;;;;;;;;4938958;29;20050;-69
2024/01/22 03:04:48;;;;;;;11.65;8.02;;;;;;;;;;4938569;29;20020;-67
2024/01/22 03:07:14;;;;;;;11.95;7.72;;;;;;;;;;4937929;29;20028;-68
2024/01/22 03:09:39;;;;;;;11.32;7.97;;;;;;;;;;4937861;29;20028;-68
2024/01/22 03:12:05;;;;;;;10.55;7.90;;;;;;;;;;4938285;29;20032;-67
2024/01/22 03:14:31;;;;;;;10.20;7.90;;;;;;;;;;4939489;29;20421;-70
2024/01/22 03:16:56;;;;;;;13.27;8.43;;;;;;;;;;4937758;29;20107;-73
2024/01/22 03:19:22;;;;;;;11.02;7.95;;;;;;;;;;4937664;29;20099;-67
2024/01/22 03:21:47;;;;;;;10.60;7.65;;;;;;;;;;4937645;29;20083;-72
2024/01/22 03:24:13;;;;;;;10.65;7.65;;;;;;;;;;4937624;29;20032;-67
2024/01/22 03:26:38;;;;;;;11.88;7.70;;;;;;;;;;4937611;29;20028;-67
2024/01/22 03:29:04;;;;;;;10.70;7.32;;;;;;;;;;4937811;29;20036;-67
2024/01/22 10:15:13;;;;;;;7.43;5.65;;;;;;;;;;6024121;23;20105;-67
2024/01/22 10:17:39;;;;;;;7.22;5.47;;;;;;;;;;4910552;29;20060;-68
2024/01/22 10:20:08;;;;;;;6.38;5.68;;;;;;;;;;4915746;29;20496;-68
2024/01/22 10:22:34;;;;;;;7.95;5.75;;;;;;;;;;4916042;29;20024;-69
2024/01/22 10:25:00;;;;;;;8.00;6.22;;;;;;;;;;4907455;29;20032;-71
2024/01/22 10:27:27;;;;;;;7.45;5.45;;;;;;;;;;4897037;29;20043;-69
2024/01/22 10:30:07;;;;;;;6.25;5.20;;;;;;;;;;4897340;29;20032;-70
2024/01/22 10:32:32;;;;;;;7.22;5.60;;;;;;;;;;4897073;29;20033;-66
2024/01/22 10:34:58;;;;;;;7.07;5.30;;;;;;;;;;4896859;29;20033;-69
2024/01/22 10:37:24;;;;;;;7.57;5.60;;;;;;;;;;4896965;29;20040;-67
2024/01/22 10:40:01;;;;;;;7.97;5.85;;;;;;;;;;4896845;29;20040;-67
2024/01/22 10:42:27;;;;;;;7.32;5.28;;;;;;;;;;4896941;29;20037;-70
2024/01/22 10:44:55;;;;;;;6.95;5.35;;;;;;;;;;4896766;29;20026;-69
2024/01/22 10:47:21;;;;;;;5.68;4.95;;;;;;;;;;4896802;29;20404;-67
2024/01/22 10:49:47;;;;;;;7.00;5.50;;;;;;;;;;4896787;29;20032;-66
2024/01/22 10:52:13;;;;;;;8.82;5.88;;;;;;;;;;4896967;29;20039;-66
2024/01/22 10:54:39;;;;;;;6.05;5.00;;;;;;;;;;4897153;29;20496;-68
2024/01/22 10:57:25;;;;;;;7.07;5.63;;;;;;;;;;4897305;29;20080;-68
2024/01/22 10:59:52;;;;;;;7.05;5.30;;;;;;;;;;4899489;29;20051;-65
2024/01/22 11:02:29;;;;;;;6.43;5.25;;;;;;;;;;4900185;29;20052;-69
2024/01/22 11:05:11;;;;;;;7.38;5.03;;;;;;;;;;4900066;29;20032;-66
2024/01/22 11:07:39;;;;;;;7.03;5.28;;;;;;;;;;4900078;29;20032;-70
2024/01/22 11:10:09;;;;;;;7.03;5.35;;;;;;;;;;4900242;29;20046;-68
2024/01/22 11:12:41;;;;;;;6.72;5.45;;;;;;;;;;4900139;29;20027;-69
2024/01/22 11:15:07;;;;;;;7.03;5.45;;;;;;;;;;4900145;29;20067;-69
2024/01/22 11:17:33;;;;;;;6.57;5.20;;;;;;;;;;4899785;29;20072;-70
2024/01/22 11:20:18;;;;;;;6.53;5.25;;;;;;;;;;4899766;29;20029;-68
2024/01/22 11:23:15;;;;;;;6.18;4.85;;;;;;;;;;4899923;29;20485;-69
2024/01/22 11:25:40;;;;;;;7.63;5.05;;;;;;;;;;4899859;29;20028;-70
2024/01/22 11:28:09;;;;;;;6.78;5.28;;;;;;;;;;4899974;29;20028;-69
2024/01/22 11:30:34;;;;;;;6.30;4.88;;;;;;;;;;4899679;29;20500;-70
2024/01/22 11:33:00;;;;;;;6.40;5.10;;;;;;;;;;4899733;29;20037;-69
2024/01/22 11:35:37;;;;;;;6.40;5.20;;;;;;;;;;4899685;29;20039;-69
2024/01/22 11:38:04;;;;;;;7.63;5.05;;;;;;;;;;4899620;29;20040;-69
2024/01/22 11:40:48;;;;;;;6.30;5.35;;;;;;;;;;4899397;29;20032;-69
2024/01/22 11:43:16;;;;;;;5.60;4.88;;;;;;;;;;4918080;29;20031;-67
2024/01/22 11:45:42;;;;;;;6.35;4.97;;;;;;;;;;4918410;29;20047;-69
2024/01/22 11:48:15;;;;;;;8.23;5.47;;;;;;;;;;4918589;29;20133;-69
2024/01/22 11:50:41;;;;;;;7.18;5.07;;;;;;;;;;4918273;29;20024;-68
2024/01/22 11:53:07;;;;;;;5.93;5.05;;;;;;;;;;4918264;29;20137;-69
2024/01/22 11:55:33;;;;;;;6.72;5.13;;;;;;;;;;4912616;29;20463;-65
2024/01/22 11:57:58;;;;;;;5.97;5.10;;;;;;;;;;4916782;29;20090;-69
2024/01/22 12:00:24;;;;;;;6.25;5.20;;;;;;;;;;4914973;29;20035;-67
2024/01/22 12:02:51;;;;;;;6.55;4.50;;;;;;;;;;4915298;29;20036;-68
2024/01/22 12:05:17;;;;;;;5.53;4.75;;;;;;;;;;4913609;29;20024;-69
2024/01/22 12:07:45;;;;;;;6.45;5.38;;;;;;;;;;4916411;29;20036;-68
2024/01/22 12:10:27;;;;;;;6.97;5.03;;;;;;;;;;4912377;29;20048;-71
2024/01/22 12:13:03;;;;;;;6.70;4.90;;;;;;;;;;4913438;29;20386;-69
2024/01/22 12:15:32;;;;;;;5.35;4.65;;;;;;;;;;4911542;29;20031;-66
2024/01/22 12:17:59;;;;;;;8.20;5.05;;;;;;;;;;4912576;29;20034;-68
2024/01/22 12:20:26;;;;;;;7.50;5.35;;;;;;;;;;4912017;29;20074;-68
2024/01/22 12:23:04;;;;;;;6.93;4.93;;;;;;;;;;4917723;29;20116;-70
2024/01/22 12:25:37;;;;;;;6.03;5.03;;;;;;;;;;4917145;29;20099;-66
2024/01/22 12:28:12;;;;;;;6.05;5.00;;;;;;;;;;4917649;29;20553;-68
2024/01/22 12:30:38;;;;;;;5.55;4.82;;;;;;;;;;4914572;29;20393;-67
2024/01/22 12:33:04;;;;;;;6.53;5.05;;;;;;;;;;4917540;29;20024;-68
2024/01/22 12:35:29;;;;;;;8.20;4.60;;;;;;;;;;4897506;29;20084;-69
2024/01/22 12:37:55;;;;;;;8.02;5.10;;;;;;;;;;4898550;29;20048;-68
2024/01/22 12:40:23;;;;;;;14.43;5.03;;;;;;;;;;4901105;29;20555;-68
2024/01/22 12:42:50;;;;;;;14.07;4.70;;;;;;;;;;4914400;29;20384;-68
2024/01/22 12:45:20;;;;;;;8.43;5.22;;;;;;;;;;4917292;29;20528;-68
2024/01/22 12:47:46;;;;;;;11.50;5.85;;;;;;;;;;4900012;29;20036;-69
2024/01/22 12:50:14;;;;;;;8.32;5.55;;;;;;;;;;4915497;29;20115;-69
2024/01/22 12:52:41;;;;;;;8.20;4.78;;;;;;;;;;4916607;29;20025;-69
2024/01/22 12:55:11;;;;;;;6.38;4.80;;;;;;;;;;4917405;29;20024;-69
2024/01/22 12:57:36;;;;;;;;;;;;;;;;;;4917352;29;20107;-69
2024/01/22 13:00:05;;;;;;;10.63;5.97;;;;;;;;;;4915966;29;20398;-69
2024/01/22 13:02:31;;;;;;;7.85;6.13;;;;;;;;;;4916952;29;20032;-69
2024/01/22 13:04:59;;;;;;;9.13;6.78;;;;;;;;;;4916860;29;20055;-69
2024/01/22 13:07:25;;;;;;;12.88;6.65;;;;;;;;;;4916953;29;20434;-69
2024/01/22 13:09:50;;;;;;;9.00;6.72;;;;;;;;;;4917177;29;20028;-69
2024/01/22 13:12:16;;;;;;;9.50;6.80;;;;;;;;;;4916859;29;20084;-69
2024/01/22 13:14:43;;;;;;;9.05;7.50;;;;;;;;;;4916865;29;20035;-69
2024/01/22 13:17:10;;;;;;;10.80;6.75;;;;;;;;;;4916608;29;20048;-69
2024/01/22 13:19:38;;;;;;;11.82;6.70;;;;;;;;;;4916593;29;20047;-69
2024/01/22 13:22:04;;;;;;;11.13;6.43;;;;;;;;;;4916651;29;20154;-69
2024/01/22 13:24:30;;;;;;;11.82;6.72;;;;;;;;;;4916656;29;20032;-69
2024/01/22 13:26:56;;;;;;;8.25;6.30;;;;;;;;;;4916857;29;20043;-69
2024/01/22 13:29:22;;;;;;;9.23;6.25;;;;;;;;;;4916824;29;20103;-69
2024/01/22 13:31:48;;;;;;;9.15;6.15;;;;;;;;;;4916368;29;20528;-69
2024/01/22 13:34:13;;;;;;;8.32;6.30;;;;;;;;;;4916457;29;20031;-69
2024/01/22 13:36:39;;;;;;;12.65;6.47;;;;;;;;;;4916045;29;20064;-69
2024/01/22 13:39:06;;;;;;;14.30;6.45;;;;;;;;;;4916364;29;20024;-69
2024/01/22 13:41:32;;;;;;;8.73;6.85;;;;;;;;;;4916287;29;20044;-69
2024/01/22 13:43:58;;;;;;;8.65;6.85;;;;;;;;;;4916398;29;20028;-69
2024/01/22 13:46:23;;;;;;;9.55;6.82;;;;;;;;;;4916388;29;20035;-69
2024/01/22 13:48:50;;;;;;;10.02;6.45;;;;;;;;;;4916264;29;20039;-69
2024/01/22 13:51:16;;;;;;;7.20;5.93;;;;;;;;;;4916255;29;20040;-69
2024/01/22 13:53:44;;;;;;;8.35;6.05;;;;;;;;;;4916326;29;20026;-69
2024/01/22 13:56:14;;;;;;;9.48;6.47;;;;;;;;;;4916228;29;20025;-69
2024/01/22 13:58:41;;;;;;;8.18;6.38;;;;;;;;;;4916328;29;20063;-70
2024/01/22 14:01:10;;;;;;;7.80;6.32;;;;;;;;;;4916209;29;20028;-69
2024/01/22 14:03:36;;;;;;;9.32;6.78;;;;;;;;;;4916268;29;20036;-70
2024/01/22 14:06:02;;;;;;;11.02;6.25;;;;;;;;;;4916231;29;20028;-69
2024/01/22 14:08:28;;;;;;;8.90;6.38;;;;;;;;;;4916187;29;20033;-69
2024/01/22 14:10:54;;;;;;;9.50;6.40;;;;;;;;;;4916147;29;20384;-69
2024/01/22 14:13:20;;;;;;;8.73;6.63;;;;;;;;;;4916156;29;20017;-70
2024/01/22 14:15:46;;;;;;;7.05;5.90;;;;;;;;;;4915948;29;20052;-70
2024/01/22 14:18:12;;;;;;;8.90;6.20;;;;;;;;;;4916106;29;20036;-70
2024/01/22 14:20:38;;;;;;;7.65;6.13;;;;;;;;;;4916032;29;20031;-70
2024/01/22 14:23:07;;;;;;;9.85;6.63;;;;;;;;;;4916102;29;20024;-70
2024/01/22 14:25:33;;;;;;;7.80;6.30;;;;;;;;;;4916319;29;20021;-69
2024/01/22 14:27:59;;;;;;;8.55;6.22;;;;;;;;;;4915994;29;20296;-70
2024/01/22 14:30:25;;;;;;;7.43;6.18;;;;;;;;;;4916013;29;20101;-70
2024/01/22 14:32:50;;;;;;;7.47;5.80;;;;;;;;;;4917721;29;20108;-70
2024/01/22 14:35:17;;;;;;;7.22;6.13;;;;;;;;;;4919638;29;20032;-70
2024/01/22 14:37:43;;;;;;;7.63;6.18;;;;;;;;;;4919649;29;20039;-70
2024/01/22 14:40:09;;;;;;;7.32;6.00;;;;;;;;;;4919401;29;20028;-69
2024/01/22 14:42:34;;;;;;;8.60;6.20;;;;;;;;;;4919479;29;20111;-70
2024/01/22 14:45:01;;;;;;;6.57;5.88;;;;;;;;;;4919406;29;20024;-69
2024/01/22 14:47:27;;;;;;;7.05;6.05;;;;;;;;;;4919409;29;20040;-69
2024/01/22 14:49:52;;;;;;;6.53;5.80;;;;;;;;;;4919352;29;20075;-69
2024/01/22 14:52:18;;;;;;;9.48;6.57;;;;;;;;;;4919395;29;20035;-69
2024/01/22 14:54:44;;;;;;;8.55;6.30;;;;;;;;;;4919326;29;20103;-69
2024/01/22 14:57:09;;;;;;;7.47;6.07;;;;;;;;;;4919518;29;20048;-69
2024/01/22 14:59:40;;;;;;;8.45;6.38;;;;;;;;;;4919188;29;20059;-69
2024/01/22 15:02:06;;;;;;;7.07;5.68;;;;;;;;;;4902235;29;20109;-69
2024/01/22 15:04:31;;;;;;;7.88;5.70;;;;;;;;;;4918646;29;20137;-69
2024/01/22 15:06:57;;;;;;;6.72;5.63;;;;;;;;;;4914711;29;20126;-70
2024/01/22 15:09:23;;;;;;;7.88;6.25;;;;;;;;;;4885258;29;20124;-71
2024/01/22 15:11:48;;;;;;;7.40;6.18;;;;;;;;;;4914492;29;20036;-70
2024/01/22 15:14:15;;;;;;;7.85;6.43;;;;;;;;;;4914380;29;20043;-72
2024/01/22 15:16:46;;;;;;;8.15;6.22;;;;;;;;;;4907823;29;20393;-70
2024/01/22 15:19:12;;;;;;;7.35;5.95;;;;;;;;;;4917099;29;20504;-69
2024/01/22 15:21:41;;;;;;;7.88;6.18;;;;;;;;;;4917191;29;20087;-70
2024/01/22 15:24:07;;;;;;;8.27;5.90;;;;;;;;;;4904064;29;20032;-67
2024/01/22 15:26:33;;;;;;;7.88;6.40;;;;;;;;;;4901170;29;20035;-67
2024/01/22 15:28:58;;;;;;;8.82;6.30;;;;;;;;;;4915817;29;20071;-72
2024/01/22 15:31:24;;;;;;;7.05;5.72;;;;;;;;;;4912889;29;20473;-72
2024/01/22 15:33:49;;;;;;;6.93;5.43;;;;;;;;;;4914341;29;20032;-72
2024/01/22 15:36:15;;;;;;;8.02;5.97;;;;;;;;;;4916486;29;20055;-71
2024/01/22 15:38:45;;;;;;;9.73;5.90;;;;;;;;;;4918355;29;20063;-72
2024/01/22 15:41:11;;;;;;;6.95;5.80;;;;;;;;;;4912233;29;20131;-70
2024/01/22 15:43:39;;;;;;;7.28;5.72;;;;;;;;;;4916967;29;20036;-70
2024/01/22 15:46:05;;;;;;;8.30;5.75;;;;;;;;;;4916853;29;20059;-70
2024/01/22 15:48:32;;;;;;;8.70;6.07;;;;;;;;;;4917014;29;20111;-70
2024/01/22 15:50:59;;;;;;;6.47;5.75;;;;;;;;;;4904022;29;20027;-71
2024/01/22 15:53:26;;;;;;;7.70;5.70;;;;;;;;;;4897813;29;20084;-70
2024/01/22 15:55:51;;;;;;;10.07;5.97;;;;;;;;;;4897836;29;20029;-71
2024/01/22 15:58:17;;;;;;;7.70;6.15;;;;;;;;;;4897964;29;20033;-71
2024/01/22 16:00:42;;;;;;;7.85;5.65;;;;;;;;;;4897611;29;20055;-73
2024/01/22 16:03:08;;;;;;;7.13;5.50;;;;;;;;;;4897626;29;20036;-72
2024/01/22 16:05:33;;;;;;;8.10;5.90;;;;;;;;;;4898765;29;20024;-70
2024/01/22 16:07:59;;;;;;;8.60;5.88;;;;;;;;;;4901905;29;20552;-72
2024/01/22 16:10:25;;;;;;;7.15;5.65;;;;;;;;;;4897533;29;20036;-70
2024/01/22 16:12:50;;;;;;;11.05;6.22;;;;;;;;;;4897496;29;20115;-70
2024/01/22 16:15:16;;;;;;;8.73;5.97;;;;;;;;;;4897231;29;20040;-71
2024/01/22 16:17:41;;;;;;;7.80;6.07;;;;;;;;;;4900195;29;20047;-72
2024/01/22 16:20:08;;;;;;;9.32;5.75;;;;;;;;;;4897992;29;20060;-72
2024/01/22 16:22:34;;;;;;;6.95;5.80;;;;;;;;;;4897502;29;20436;-70
2024/01/22 16:25:02;;;;;;;8.55;6.07;;;;;;;;;;4897258;29;20119;-68
2024/01/22 16:27:29;;;;;;;8.32;5.47;;;;;;;;;;4900952;29;20025;-67
2024/01/22 16:29:55;;;;;;;10.10;5.70;;;;;;;;;;4916640;29;20086;-68
2024/01/22 16:32:20;;;;;;;7.00;5.90;;;;;;;;;;4916551;29;20425;-69
2024/01/22 16:34:46;;;;;;;10.10;5.78;;;;;;;;;;4914026;29;20054;-68
2024/01/22 16:37:12;;;;;;;7.40;5.53;;;;;;;;;;4917349;29;20039;-68
2024/01/22 16:39:38;;;;;;;8.15;6.03;;;;;;;;;;4917379;29;20051;-69
2024/01/22 16:42:07;;;;;;;11.57;6.00;;;;;;;;;;4916802;29;20481;-68
2024/01/22 16:44:35;;;;;;;9.40;6.00;;;;;;;;;;4916900;29;20031;-68
2024/01/22 16:47:01;;;;;;;11.50;5.72;;;;;;;;;;4916703;29;20110;-68
2024/01/22 16:49:27;;;;;;;6.57;5.60;;;;;;;;;;4914684;29;20144;-68
2024/01/22 16:51:52;;;;;;;7.30;5.50;;;;;;;;;;4916509;29;20111;-69
2024/01/22 16:54:18;;;;;;;7.88;5.75;;;;;;;;;;4916511;29;20024;-69
2024/01/22 16:56:44;;;;;;;9.85;5.97;;;;;;;;;;4916147;29;20032;-69
2024/01/22 16:59:10;;;;;;;9.52;5.70;;;;;;;;;;4916713;29;20062;-68
2024/01/22 17:01:35;;;;;;;10.52;6.15;;;;;;;;;;4916973;29;20156;-68
2024/01/22 17:04:02;;;;;;;7.13;5.50;;;;;;;;;;4916852;29;20028;-69
2024/01/22 17:06:28;;;;;;;7.80;5.47;;;;;;;;;;4916824;29;20032;-69
2024/01/22 17:08:54;;;;;;;9.48;5.80;;;;;;;;;;4916227;29;20068;-69
2024/01/22 17:11:20;;;;;;;11.32;6.35;;;;;;;;;;4916226;29;20027;-69
2024/01/22 17:13:46;;;;;;;9.52;5.93;;;;;;;;;;4915497;29;20032;-69
2024/01/22 17:16:12;;;;;;;15.00;5.80;;;;;;;;;;4898750;29;20044;-68
2024/01/22 17:18:37;;;;;;;11.20;6.32;;;;;;;;;;4915157;29;20103;-68
2024/01/22 17:21:03;;;;;;;10.23;6.20;;;;;;;;;;4915151;29;20377;-67
2024/01/22 17:23:31;;;;;;;8.10;5.82;;;;;;;;;;4897921;29;20048;-68
2024/01/22 17:25:58;;;;;;;14.85;6.72;;;;;;;;;;4915515;29;20087;-69
2024/01/22 17:28:23;;;;;;;14.63;6.93;;;;;;;;;;4914502;29;20384;-67
2024/01/22 17:30:49;;;;;;;13.05;6.30;;;;;;;;;;4914690;29;20038;-68
2024/01/22 17:33:16;;;;;;;13.85;6.32;;;;;;;;;;4915157;29;20040;-67
2024/01/22 17:35:42;;;;;;;12.15;6.40;;;;;;;;;;4914788;29;20549;-68
2024/01/22 17:38:11;;;;;;;16.85;6.95;;;;;;;;;;4915117;29;20032;-67
2024/01/22 17:40:38;;;;;;;10.60;6.85;;;;;;;;;;4915164;29;20040;-68
2024/01/22 17:43:03;;;;;;;12.73;6.15;;;;;;;;;;4898503;29;20066;-67
2024/01/22 17:45:29;;;;;;;13.52;6.57;;;;;;;;;;4915503;29;20059;-68
2024/01/22 17:47:55;;;;;;;16.10;6.60;;;;;;;;;;4915410;29;20032;-68
2024/01/22 17:50:21;;;;;;;10.95;6.72;;;;;;;;;;4915444;29;20056;-68
2024/01/22 17:52:46;;;;;;;12.55;6.47;;;;;;;;;;4915653;29;20024;-67
2024/01/22 17:55:13;;;;;;;13.70;5.95;;;;;;;;;;4915498;29;20059;-67
2024/01/22 17:57:38;;;;;;;10.82;6.72;;;;;;;;;;4915421;29;20036;-67
2024/01/22 18:00:04;;;;;;;19.23;6.70;;;;;;;;;;4916132;29;20029;-68
2024/01/22 18:02:33;;;;;;;12.52;6.57;;;;;;;;;;4915732;29;20100;-67
2024/01/22 18:04:58;;;;;;;16.33;6.45;;;;;;;;;;4915899;29;20035;-69
2024/01/22 18:07:24;;;;;;;15.20;6.40;;;;;;;;;;4917147;29;20024;-68
2024/01/22 18:09:50;;;;;;;13.73;7.00;;;;;;;;;;4920054;29;20024;-68
2024/01/22 18:12:16;;;;;;;23.42;6.88;;;;;;;;;;4920087;29;20111;-69
2024/01/22 18:14:42;;;;;;;14.82;6.65;;;;;;;;;;4919842;29;20044;-67
2024/01/22 18:17:08;;;;;;;10.68;6.47;;;;;;;;;;4919641;29;20563;-69
2024/01/22 18:19:33;;;;;;;14.95;6.38;;;;;;;;;;4920120;29;20032;-70
2024/01/22 18:21:59;;;;;;;13.45;6.70;;;;;;;;;;4919768;29;20469;-69
2024/01/22 18:24:25;;;;;;;15.10;7.32;;;;;;;;;;4919684;29;20358;-68
2024/01/22 18:26:51;;;;;;;11.88;6.57;;;;;;;;;;4919854;29;20034;-69
2024/01/22 18:29:17;;;;;;;12.65;6.82;;;;;;;;;;4919423;29;20024;-68
2024/01/22 18:31:43;;;;;;;20.08;6.65;;;;;;;;;;4919473;29;20024;-69
2024/01/22 18:34:08;;;;;;;14.52;6.60;;;;;;;;;;4919502;29;20080;-68
2024/01/22 18:36:34;;;;;;;15.63;6.80;;;;;;;;;;4919371;29;20083;-68
2024/01/22 18:39:00;;;;;;;10.13;6.95;;;;;;;;;;4919249;29;20028;-69
2024/01/22 18:41:27;;;;;;;16.10;6.82;;;;;;;;;;4918550;29;20032;-68
2024/01/22 18:43:54;;;;;;;11.27;6.82;;;;;;;;;;4918638;29;20040;-68
2024/01/22 18:46:20;;;;;;;11.57;6.93;;;;;;;;;;4918786;29;20028;-70
2024/01/22 18:48:46;;;;;;;11.95;6.70;;;;;;;;;;4917700;29;20056;-69
2024/01/22 18:51:11;;;;;;;11.77;6.47;;;;;;;;;;4919350;29;20031;-69
2024/01/22 18:53:37;;;;;;;12.98;6.35;;;;;;;;;;4918375;29;20032;-68
2024/01/22 18:56:03;;;;;;;14.40;6.93;;;;;;;;;;4918557;29;20028;-67
2024/01/22 18:58:28;;;;;;;19.63;6.55;;;;;;;;;;4919209;29;20031;-72
2024/01/22 19:00:55;;;;;;;17.30;6.70;;;;;;;;;;4919299;29;20040;-72
2024/01/22 19:03:20;;;;;;;13.10;6.68;;;;;;;;;;4919180;29;20032;-69
2024/01/22 19:05:46;;;;;;;18.17;6.90;;;;;;;;;;4902092;29;20028;-71
2024/01/22 19:08:12;;;;;;;11.45;6.32;;;;;;;;;;4918932;29;20035;-70
2024/01/22 19:10:37;;;;;;;11.73;6.30;;;;;;;;;;4919301;29;20083;-70
2024/01/22 19:13:04;;;;;;;10.38;6.70;;;;;;;;;;4919042;29;20035;-69
2024/01/22 19:15:29;;;;;;;13.82;6.32;;;;;;;;;;4918833;29;20028;-69
2024/01/22 19:17:55;;;;;;;15.98;6.88;;;;;;;;;;4918670;29;20560;-69
2024/01/22 19:20:20;;;;;;;12.10;6.97;;;;;;;;;;4917528;29;20113;-70
2024/01/22 19:22:47;;;;;;;13.68;7.18;;;;;;;;;;4918125;29;20028;-68
2024/01/22 19:25:13;;;;;;;13.25;6.53;;;;;;;;;;4917872;29;20024;-70
2024/01/22 19:27:39;;;;;;;14.45;6.78;;;;;;;;;;4917628;29;20051;-67
2024/01/22 19:30:05;;;;;;;11.48;6.30;;;;;;;;;;4917731;29;20040;-69
2024/01/22 19:32:30;;;;;;;11.95;6.32;;;;;;;;;;4917428;29;20042;-69
2024/01/22 19:34:56;;;;;;;11.23;6.70;;;;;;;;;;4917064;29;20471;-70
2024/01/22 19:37:21;;;;;;;11.77;6.97;;;;;;;;;;4917299;29;20102;-71
2024/01/22 19:39:47;;;;;;;10.75;6.07;;;;;;;;;;4917041;29;20031;-70
2024/01/22 19:42:13;;;;;;;17.00;6.68;;;;;;;;;;4916999;29;20063;-69
2024/01/22 19:44:38;;;;;;;13.90;6.88;;;;;;;;;;4917001;29;20032;-69
2024/01/22 19:47:04;;;;;;;14.27;6.45;;;;;;;;;;4917539;29;20504;-68
2024/01/22 19:49:29;;;;;;;12.38;6.70;;;;;;;;;;4918166;29;20413;-69
2024/01/22 19:51:55;;;;;;;9.43;6.03;;;;;;;;;;4917596;29;20104;-69
2024/01/22 19:54:20;;;;;;;10.55;6.22;;;;;;;;;;4917837;29;20119;-68
2024/01/22 19:56:48;;;;;;;10.95;7.20;;;;;;;;;;4917324;29;20433;-69
2024/01/22 19:59:13;;;;;;;14.85;6.70;;;;;;;;;;4918048;29;20028;-68
2024/01/22 20:01:39;;;;;;;15.70;6.50;;;;;;;;;;4913058;29;20044;-69
2024/01/22 20:04:06;;;;;;;9.85;7.05;;;;;;;;;;4899028;29;20036;-69
2024/01/22 20:06:31;;;;;;;8.82;6.30;;;;;;;;;;4899104;29;20548;-69
2024/01/22 20:08:57;;;;;;;11.23;6.60;;;;;;;;;;4899146;29;20024;-68
2024/01/22 20:11:22;;;;;;;16.63;6.50;;;;;;;;;;4899108;29;20133;-70
2024/01/22 20:13:48;;;;;;;13.90;6.57;;;;;;;;;;4899054;29;20068;-69
2024/01/22 20:16:14;;;;;;;16.88;6.97;;;;;;;;;;4915792;29;20048;-69
2024/01/22 20:18:39;;;;;;;11.77;5.85;;;;;;;;;;4917672;29;20024;-68
2024/01/22 20:21:05;;;;;;;15.98;6.43;;;;;;;;;;4917604;29;20032;-69
2024/01/22 20:23:32;;;;;;;14.15;6.53;;;;;;;;;;4917751;29;20028;-70
2024/01/22 20:26:00;;;;;;;12.90;6.70;;;;;;;;;;4917655;29;20108;-68
2024/01/22 20:28:26;;;;;;;15.23;6.35;;;;;;;;;;4917713;29;20032;-68
2024/01/22 20:30:52;;;;;;;11.45;6.40;;;;;;;;;;4915480;29;20166;-68
2024/01/22 20:33:18;;;;;;;19.65;6.95;;;;;;;;;;4917498;29;20040;-69
2024/01/22 20:35:43;;;;;;;12.73;7.00;;;;;;;;;;4917808;29;20507;-69
2024/01/22 20:38:09;;;;;;;15.73;7.95;;;;;;;;;;4917490;29;20473;-69
2024/01/22 20:40:34;;;;;;;21.90;9.10;;;;;;;;;;4917121;29;20055;-69
2024/01/22 20:43:00;;;;;;;26.58;9.95;;;;;;;;;;4917280;29;20033;-69
2024/01/22 20:45:31;;;;;;;51.70;14.25;;;;;;;;;;4917542;29;20035;-70
2024/01/22 20:47:57;;;;;;;80.20;16.63;;;;;;;;;;4917545;29;20389;-69
2024/01/22 20:50:23;;;;;;;55.80;13.93;;;;;;;;;;4917273;29;20024;-69
2024/01/22 20:52:48;;;;;;;55.13;13.27;;;;;;;;;;4917018;29;20032;-69
2024/01/22 20:55:14;;;;;;;49.75;12.57;;;;;;;;;;4917179;29;20078;-68
2024/01/22 20:57:40;;;;;;;45.35;12.63;;;;;;;;;;4917043;29;20046;-69
2024/01/22 21:00:08;;;;;;;44.38;13.20;;;;;;;;;;4916866;29;20028;-69
2024/01/22 21:02:34;;;;;;;39.03;11.85;;;;;;;;;;4917000;29;20153;-69
2024/01/22 21:05:00;;;;;;;42.63;12.95;;;;;;;;;;4916976;29;20141;-68
2024/01/22 21:07:26;;;;;;;35.53;11.38;;;;;;;;;;4916749;29;20036;-69
2024/01/22 21:09:52;;;;;;;36.70;11.93;;;;;;;;;;4916844;29;20461;-69
2024/01/22 21:12:17;;;;;;;37.00;12.18;;;;;;;;;;4916828;29;20167;-68
2024/01/22 21:14:43;;;;;;;47.00;11.20;;;;;;;;;;4916800;29;20028;-69